sensor_id;sensor_type;location;lat;lon;timestamp;P1;durP1;ratioP1;P2;durP2;ratioP2
71896;SDS011;59767;51.344;12.362;2022-10-15T00:01:40;15.50;;;8.77;;
71896;SDS011;59767;51.344;12.362;2022-10-15T00:04:44;13.73;;;8.00;;
71896;SDS011;59767;51.344;12.362;2022-10-15T00:07:52;15.73;;;8.88;;
71896;SDS011;59767;51.344;12.362;2022-10-15T00:11:00;18.23;;;8.15;;
71896;SDS011;59767;51.344;12.362;2022-10-15T00:14:06;14.35;;;8.20;;
71896;SDS011;59767;51.344;12.362;2022-10-15T00:17:09;14.43;;;7.88;;
71896;SDS011;59767;51.344;12.362;2022-10-15T00:20:13;13.13;;;7.97;;
71896;SDS011;59767;51.344;12.362;2022-10-15T00:23:18;14.43;;;7.72;;
71896;SDS011;59767;51.344;12.362;2022-10-15T00:26:23;14.60;;;8.57;;
71896;SDS011;59767;51.344;12.362;2022-10-15T00:29:29;13.52;;;7.72;;
71896;SDS011;59767;51.344;12.362;2022-10-15T00:32:33;17.55;;;8.13;;
71896;SDS011;59767;51.344;12.362;2022-10-15T00:35:37;15.00;;;7.55;;
71896;SDS011;59767;51.344;12.362;2022-10-15T00:38:41;12.88;;;6.97;;
71896;SDS011;59767;51.344;12.362;2022-10-15T00:41:45;15.77;;;7.00;;
71896;SDS011;59767;51.344;12.362;2022-10-15T00:44:57;14.00;;;7.45;;
71896;SDS011;59767;51.344;12.362;2022-10-15T00:48:02;12.68;;;6.45;;
71896;SDS011;59767;51.344;12.362;2022-10-15T00:51:06;10.85;;;6.72;;
71896;SDS011;59767;51.344;12.362;2022-10-15T00:54:11;12.13;;;7.32;;
71896;SDS011;59767;51.344;12.362;2022-10-15T00:57:15;14.90;;;7.00;;
71896;SDS011;59767;51.344;12.362;2022-10-15T01:00:19;13.32;;;6.30;;
71896;SDS011;59767;51.344;12.362;2022-10-15T01:03:24;10.07;;;5.93;;
71896;SDS011;59767;51.344;12.362;2022-10-15T01:06:28;11.93;;;5.78;;
71896;SDS011;59767;51.344;12.362;2022-10-15T01:09:32;12.60;;;5.20;;
71896;SDS011;59767;51.344;12.362;2022-10-15T01:12:39;12.32;;;5.80;;
71896;SDS011;59767;51.344;12.362;2022-10-15T01:19:01;12.25;;;5.45;;
71896;SDS011;59767;51.344;12.362;2022-10-15T01:22:12;11.45;;;5.28;;
71896;SDS011;59767;51.344;12.362;2022-10-15T01:32:28;9.20;;;5.43;;
71896;SDS011;59767;51.344;12.362;2022-10-15T01:35:42;12.07;;;5.70;;
71896;SDS011;59767;51.344;12.362;2022-10-15T01:42:05;12.88;;;5.40;;
71896;SDS011;59767;51.344;12.362;2022-10-15T01:45:19;9.95;;;5.50;;
71896;SDS011;59767;51.344;12.362;2022-10-15T01:48:28;10.68;;;6.03;;
71896;SDS011;59767;51.344;12.362;2022-10-15T01:51:35;11.23;;;5.80;;
71896;SDS011;59767;51.344;12.362;2022-10-15T01:54:42;13.13;;;6.18;;
71896;SDS011;59767;51.344;12.362;2022-10-15T01:57:49;11.73;;;6.22;;
71896;SDS011;59767;51.344;12.362;2022-10-15T02:00:55;14.00;;;6.15;;
71896;SDS011;59767;51.344;12.362;2022-10-15T02:04:00;13.02;;;6.00;;
71896;SDS011;59767;51.344;12.362;2022-10-15T02:10:32;11.25;;;5.75;;
71896;SDS011;59767;51.344;12.362;2022-10-15T02:14:02;11.43;;;5.65;;
71896;SDS011;59767;51.344;12.362;2022-10-15T02:17:13;11.60;;;5.75;;
71896;SDS011;59767;51.344;12.362;2022-10-15T02:20:21;10.73;;;6.43;;
71896;SDS011;59767;51.344;12.362;2022-10-15T02:23:30;11.70;;;6.05;;
71896;SDS011;59767;51.344;12.362;2022-10-15T02:26:57;11.25;;;6.13;;
71896;SDS011;59767;51.344;12.362;2022-10-15T02:30:05;10.20;;;5.90;;
71896;SDS011;59767;51.344;12.362;2022-10-15T02:33:11;10.35;;;5.85;;
71896;SDS011;59767;51.344;12.362;2022-10-15T02:36:17;8.90;;;5.53;;
71896;SDS011;59767;51.344;12.362;2022-10-15T02:39:22;10.60;;;5.82;;
71896;SDS011;59767;51.344;12.362;2022-10-15T02:42:26;12.43;;;5.82;;
71896;SDS011;59767;51.344;12.362;2022-10-15T02:45:31;10.95;;;5.72;;
71896;SDS011;59767;51.344;12.362;2022-10-15T02:48:35;10.45;;;5.65;;
71896;SDS011;59767;51.344;12.362;2022-10-15T02:51:39;12.10;;;5.78;;
71896;SDS011;59767;51.344;12.362;2022-10-15T02:54:44;8.43;;;5.00;;
71896;SDS011;59767;51.344;12.362;2022-10-15T02:57:48;10.10;;;5.40;;
71896;SDS011;59767;51.344;12.362;2022-10-15T03:00:52;11.75;;;5.50;;
71896;SDS011;59767;51.344;12.362;2022-10-15T03:03:57;10.13;;;4.90;;
71896;SDS011;59767;51.344;12.362;2022-10-15T03:07:01;10.73;;;5.28;;
71896;SDS011;59767;51.344;12.362;2022-10-15T03:10:06;9.55;;;5.00;;
71896;SDS011;59767;51.344;12.362;2022-10-15T03:13:10;9.40;;;4.70;;
71896;SDS011;59767;51.344;12.362;2022-10-15T03:16:18;9.88;;;4.68;;
71896;SDS011;59767;51.344;12.362;2022-10-15T03:19:22;7.72;;;4.55;;
71896;SDS011;59767;51.344;12.362;2022-10-15T03:22:27;8.85;;;4.22;;
71896;SDS011;59767;51.344;12.362;2022-10-15T03:25:31;9.00;;;4.13;;
71896;SDS011;59767;51.344;12.362;2022-10-15T03:28:35;9.00;;;4.85;;
71896;SDS011;59767;51.344;12.362;2022-10-15T03:31:40;8.07;;;4.00;;
71896;SDS011;59767;51.344;12.362;2022-10-15T03:34:44;9.15;;;4.63;;
71896;SDS011;59767;51.344;12.362;2022-10-15T03:37:48;7.55;;;3.65;;
71896;SDS011;59767;51.344;12.362;2022-10-15T03:40:53;11.52;;;4.07;;
71896;SDS011;59767;51.344;12.362;2022-10-15T03:44:00;7.05;;;3.65;;
71896;SDS011;59767;51.344;12.362;2022-10-15T03:47:06;6.50;;;3.60;;
71896;SDS011;59767;51.344;12.362;2022-10-15T03:50:11;8.07;;;3.60;;
71896;SDS011;59767;51.344;12.362;2022-10-15T03:53:15;9.00;;;3.20;;
71896;SDS011;59767;51.344;12.362;2022-10-15T03:56:20;6.53;;;3.45;;
71896;SDS011;59767;51.344;12.362;2022-10-15T03:59:24;8.18;;;3.75;;
71896;SDS011;59767;51.344;12.362;2022-10-15T04:02:29;7.60;;;3.53;;
71896;SDS011;59767;51.344;12.362;2022-10-15T04:05:34;6.55;;;3.17;;
71896;SDS011;59767;51.344;12.362;2022-10-15T04:08:39;6.78;;;3.47;;
71896;SDS011;59767;51.344;12.362;2022-10-15T04:11:43;7.22;;;3.17;;
71896;SDS011;59767;51.344;12.362;2022-10-15T04:14:48;6.97;;;3.28;;
71896;SDS011;59767;51.344;12.362;2022-10-15T04:17:53;6.70;;;3.20;;
71896;SDS011;59767;51.344;12.362;2022-10-15T04:20:58;5.35;;;2.97;;
71896;SDS011;59767;51.344;12.362;2022-10-15T04:24:03;9.68;;;3.33;;
71896;SDS011;59767;51.344;12.362;2022-10-15T04:27:07;7.05;;;3.17;;
71896;SDS011;59767;51.344;12.362;2022-10-15T04:30:13;9.25;;;3.20;;
71896;SDS011;59767;51.344;12.362;2022-10-15T04:33:18;8.15;;;3.00;;
71896;SDS011;59767;51.344;12.362;2022-10-15T04:36:22;7.00;;;3.03;;
71896;SDS011;59767;51.344;12.362;2022-10-15T04:39:26;6.80;;;3.25;;
71896;SDS011;59767;51.344;12.362;2022-10-15T04:42:30;8.02;;;3.25;;
71896;SDS011;59767;51.344;12.362;2022-10-15T04:45:35;8.77;;;2.78;;
71896;SDS011;59767;51.344;12.362;2022-10-15T04:48:39;7.13;;;3.25;;
71896;SDS011;59767;51.344;12.362;2022-10-15T04:51:46;7.25;;;3.20;;
71896;SDS011;59767;51.344;12.362;2022-10-15T04:54:50;9.80;;;3.60;;
71896;SDS011;59767;51.344;12.362;2022-10-15T04:57:55;8.50;;;2.80;;
71896;SDS011;59767;51.344;12.362;2022-10-15T05:01:09;7.60;;;3.10;;
71896;SDS011;59767;51.344;12.362;2022-10-15T05:04:18;9.13;;;2.88;;
71896;SDS011;59767;51.344;12.362;2022-10-15T05:07:22;7.15;;;3.13;;
71896;SDS011;59767;51.344;12.362;2022-10-15T05:10:26;6.45;;;2.90;;
71896;SDS011;59767;51.344;12.362;2022-10-15T05:13:31;8.88;;;3.13;;
71896;SDS011;59767;51.344;12.362;2022-10-15T05:16:36;8.50;;;3.13;;
71896;SDS011;59767;51.344;12.362;2022-10-15T05:19:40;8.38;;;3.22;;
71896;SDS011;59767;51.344;12.362;2022-10-15T05:22:45;6.50;;;2.90;;
71896;SDS011;59767;51.344;12.362;2022-10-15T05:25:49;11.07;;;3.20;;
71896;SDS011;59767;51.344;12.362;2022-10-15T05:28:57;7.65;;;3.25;;
71896;SDS011;59767;51.344;12.362;2022-10-15T05:32:03;6.35;;;2.85;;
71896;SDS011;59767;51.344;12.362;2022-10-15T05:35:07;6.60;;;3.40;;
71896;SDS011;59767;51.344;12.362;2022-10-15T05:38:12;8.98;;;3.60;;
71896;SDS011;59767;51.344;12.362;2022-10-15T05:41:16;7.88;;;3.05;;
71896;SDS011;59767;51.344;12.362;2022-10-15T05:44:21;8.77;;;3.20;;
71896;SDS011;59767;51.344;12.362;2022-10-15T05:47:25;7.88;;;3.00;;
71896;SDS011;59767;51.344;12.362;2022-10-15T05:50:29;6.50;;;2.92;;
71896;SDS011;59767;51.344;12.362;2022-10-15T05:53:33;10.55;;;2.97;;
71896;SDS011;59767;51.344;12.362;2022-10-15T05:56:37;8.00;;;2.92;;
71896;SDS011;59767;51.344;12.362;2022-10-15T05:59:42;6.32;;;3.00;;
71896;SDS011;59767;51.344;12.362;2022-10-15T06:02:45;6.38;;;2.97;;
71896;SDS011;59767;51.344;12.362;2022-10-15T06:05:50;5.40;;;2.70;;
71896;SDS011;59767;51.344;12.362;2022-10-15T06:08:54;7.53;;;2.67;;
71896;SDS011;59767;51.344;12.362;2022-10-15T06:11:58;7.30;;;2.88;;
71896;SDS011;59767;51.344;12.362;2022-10-15T06:15:03;6.57;;;2.63;;
71896;SDS011;59767;51.344;12.362;2022-10-15T06:18:07;8.55;;;2.80;;
71896;SDS011;59767;51.344;12.362;2022-10-15T06:21:12;6.05;;;2.45;;
71896;SDS011;59767;51.344;12.362;2022-10-15T06:24:16;7.55;;;2.65;;
71896;SDS011;59767;51.344;12.362;2022-10-15T06:27:20;6.50;;;2.80;;
71896;SDS011;59767;51.344;12.362;2022-10-15T06:30:25;6.10;;;2.42;;
71896;SDS011;59767;51.344;12.362;2022-10-15T06:33:29;8.20;;;2.50;;
71896;SDS011;59767;51.344;12.362;2022-10-15T06:36:34;6.57;;;2.67;;
71896;SDS011;59767;51.344;12.362;2022-10-15T06:39:37;5.57;;;2.42;;
71896;SDS011;59767;51.344;12.362;2022-10-15T06:42:43;5.70;;;2.20;;
71896;SDS011;59767;51.344;12.362;2022-10-15T06:45:47;6.40;;;2.47;;
71896;SDS011;59767;51.344;12.362;2022-10-15T06:48:51;6.47;;;2.33;;
71896;SDS011;59767;51.344;12.362;2022-10-15T06:51:57;6.10;;;2.47;;
71896;SDS011;59767;51.344;12.362;2022-10-15T06:55:06;7.95;;;2.20;;
71896;SDS011;59767;51.344;12.362;2022-10-15T06:58:10;5.75;;;2.15;;
71896;SDS011;59767;51.344;12.362;2022-10-15T07:01:14;7.22;;;2.40;;
71896;SDS011;59767;51.344;12.362;2022-10-15T07:04:21;5.25;;;2.30;;
71896;SDS011;59767;51.344;12.362;2022-10-15T07:07:25;4.85;;;2.40;;
71896;SDS011;59767;51.344;12.362;2022-10-15T07:10:30;6.53;;;2.47;;
71896;SDS011;59767;51.344;12.362;2022-10-15T07:13:34;8.02;;;2.50;;
71896;SDS011;59767;51.344;12.362;2022-10-15T07:16:38;8.02;;;2.47;;
71896;SDS011;59767;51.344;12.362;2022-10-15T07:19:43;7.95;;;2.15;;
71896;SDS011;59767;51.344;12.362;2022-10-15T07:22:47;6.20;;;2.22;;
71896;SDS011;59767;51.344;12.362;2022-10-15T07:25:51;8.35;;;2.50;;
71896;SDS011;59767;51.344;12.362;2022-10-15T07:28:55;5.28;;;2.13;;
71896;SDS011;59767;51.344;12.362;2022-10-15T07:32:00;10.15;;;2.28;;
71896;SDS011;59767;51.344;12.362;2022-10-15T07:35:04;6.63;;;2.13;;
71896;SDS011;59767;51.344;12.362;2022-10-15T07:38:09;4.93;;;2.30;;
71896;SDS011;59767;51.344;12.362;2022-10-15T07:41:14;9.27;;;2.15;;
71896;SDS011;59767;51.344;12.362;2022-10-15T07:44:18;5.95;;;2.20;;
71896;SDS011;59767;51.344;12.362;2022-10-15T07:47:22;6.78;;;2.38;;
71896;SDS011;59767;51.344;12.362;2022-10-15T07:50:27;11.20;;;2.60;;
71896;SDS011;59767;51.344;12.362;2022-10-15T07:53:38;4.28;;;2.13;;
71896;SDS011;59767;51.344;12.362;2022-10-15T07:56:41;6.45;;;2.05;;
71896;SDS011;59767;51.344;12.362;2022-10-15T07:59:45;5.78;;;2.22;;
71896;SDS011;59767;51.344;12.362;2022-10-15T08:02:49;5.20;;;2.20;;
71896;SDS011;59767;51.344;12.362;2022-10-15T08:05:53;6.70;;;2.40;;
71896;SDS011;59767;51.344;12.362;2022-10-15T08:08:58;9.15;;;2.60;;
71896;SDS011;59767;51.344;12.362;2022-10-15T08:12:02;6.88;;;2.10;;
71896;SDS011;59767;51.344;12.362;2022-10-15T08:15:08;4.95;;;2.20;;
71896;SDS011;59767;51.344;12.362;2022-10-15T08:18:13;8.73;;;2.30;;
71896;SDS011;59767;51.344;12.362;2022-10-15T08:21:17;6.03;;;2.22;;
71896;SDS011;59767;51.344;12.362;2022-10-15T08:24:21;4.97;;;2.30;;
71896;SDS011;59767;51.344;12.362;2022-10-15T08:27:25;9.15;;;2.42;;
71896;SDS011;59767;51.344;12.362;2022-10-15T08:30:29;5.72;;;2.00;;
71896;SDS011;59767;51.344;12.362;2022-10-15T08:33:33;6.40;;;2.15;;
71896;SDS011;59767;51.344;12.362;2022-10-15T08:36:38;4.68;;;2.22;;
71896;SDS011;59767;51.344;12.362;2022-10-15T08:39:42;5.53;;;2.20;;
71896;SDS011;59767;51.344;12.362;2022-10-15T08:42:46;5.97;;;2.05;;
71896;SDS011;59767;51.344;12.362;2022-10-15T08:45:51;8.98;;;2.30;;
71896;SDS011;59767;51.344;12.362;2022-10-15T08:49:00;4.68;;;1.90;;
71896;SDS011;59767;51.344;12.362;2022-10-15T08:52:07;6.05;;;2.15;;
71896;SDS011;59767;51.344;12.362;2022-10-15T08:55:20;6.35;;;2.05;;
71896;SDS011;59767;51.344;12.362;2022-10-15T08:58:42;6.40;;;2.10;;
71896;SDS011;59767;51.344;12.362;2022-10-15T09:02:38;4.75;;;1.73;;
71896;SDS011;59767;51.344;12.362;2022-10-15T09:05:31;4.35;;;1.70;;
71896;SDS011;59767;51.344;12.362;2022-10-15T09:09:03;4.43;;;2.15;;
71896;SDS011;59767;51.344;12.362;2022-10-15T09:15:35;2.88;;;1.50;;
71896;SDS011;59767;51.344;12.362;2022-10-15T09:18:48;3.88;;;1.40;;
71896;SDS011;59767;51.344;12.362;2022-10-15T09:21:56;5.57;;;1.52;;
71896;SDS011;59767;51.344;12.362;2022-10-15T09:25:15;6.72;;;1.70;;
71896;SDS011;59767;51.344;12.362;2022-10-15T09:28:26;4.40;;;1.58;;
71896;SDS011;59767;51.344;12.362;2022-10-15T09:31:44;5.55;;;1.77;;
71896;SDS011;59767;51.344;12.362;2022-10-15T09:42:06;2.45;;;1.30;;
71896;SDS011;59767;51.344;12.362;2022-10-15T09:45:11;2.05;;;1.30;;
71896;SDS011;59767;51.344;12.362;2022-10-15T09:48:19;2.92;;;1.40;;
71896;SDS011;59767;51.344;12.362;2022-10-15T09:51:26;2.58;;;1.42;;
71896;SDS011;59767;51.344;12.362;2022-10-15T09:57:49;2.90;;;1.30;;
71896;SDS011;59767;51.344;12.362;2022-10-15T10:00:57;3.50;;;1.20;;
71896;SDS011;59767;51.344;12.362;2022-10-15T10:04:09;2.05;;;1.13;;
71896;SDS011;59767;51.344;12.362;2022-10-15T10:07:28;2.10;;;1.30;;
71896;SDS011;59767;51.344;12.362;2022-10-15T10:10:38;1.67;;;1.00;;
71896;SDS011;59767;51.344;12.362;2022-10-15T10:17:11;3.40;;;0.80;;
71896;SDS011;59767;51.344;12.362;2022-10-15T10:20:19;4.13;;;0.82;;
71896;SDS011;59767;51.344;12.362;2022-10-15T10:23:37;2.35;;;0.70;;
71896;SDS011;59767;51.344;12.362;2022-10-15T10:26:42;0.82;;;0.40;;
71896;SDS011;59767;51.344;12.362;2022-10-15T10:29:56;3.15;;;0.80;;
71896;SDS011;59767;51.344;12.362;2022-10-15T10:33:03;1.95;;;0.90;;
71896;SDS011;59767;51.344;12.362;2022-10-15T10:39:51;1.55;;;0.90;;
71896;SDS011;59767;51.344;12.362;2022-10-15T10:46:19;2.47;;;1.30;;
71896;SDS011;59767;51.344;12.362;2022-10-15T10:49:32;2.38;;;1.10;;
71896;SDS011;59767;51.344;12.362;2022-10-15T10:52:38;3.88;;;1.08;;
71896;SDS011;59767;51.344;12.362;2022-10-15T10:55:43;4.60;;;1.20;;
71896;SDS011;59767;51.344;12.362;2022-10-15T10:58:51;3.25;;;1.10;;
71896;SDS011;59767;51.344;12.362;2022-10-15T11:02:02;1.63;;;1.00;;
71896;SDS011;59767;51.344;12.362;2022-10-15T11:05:10;3.03;;;0.93;;
71896;SDS011;59767;51.344;12.362;2022-10-15T11:08:26;2.13;;;1.00;;
71896;SDS011;59767;51.344;12.362;2022-10-15T11:18:53;4.20;;;1.08;;
71896;SDS011;59767;51.344;12.362;2022-10-15T11:33:54;1.42;;;0.88;;
71896;SDS011;59767;51.344;12.362;2022-10-15T11:40:57;1.13;;;0.70;;
71896;SDS011;59767;51.344;12.362;2022-10-15T11:47:44;0.95;;;0.80;;
71896;SDS011;59767;51.344;12.362;2022-10-15T11:50:59;1.63;;;1.00;;
71896;SDS011;59767;51.344;12.362;2022-10-15T11:54:14;1.98;;;0.80;;
71896;SDS011;59767;51.344;12.362;2022-10-15T11:57:25;1.67;;;0.70;;
71896;SDS011;59767;51.344;12.362;2022-10-15T12:00:33;2.22;;;0.80;;
71896;SDS011;59767;51.344;12.362;2022-10-15T12:03:49;2.28;;;1.10;;
71896;SDS011;59767;51.344;12.362;2022-10-15T12:06:57;3.78;;;0.98;;
71896;SDS011;59767;51.344;12.362;2022-10-15T12:13:46;2.55;;;0.90;;
71896;SDS011;59767;51.344;12.362;2022-10-15T12:20:16;2.58;;;0.90;;
71896;SDS011;59767;51.344;12.362;2022-10-15T12:26:39;2.25;;;0.70;;
71896;SDS011;59767;51.344;12.362;2022-10-15T12:29:47;1.45;;;0.73;;
71896;SDS011;59767;51.344;12.362;2022-10-15T12:32:53;1.50;;;0.60;;
71896;SDS011;59767;51.344;12.362;2022-10-15T12:36:02;1.00;;;0.70;;
71896;SDS011;59767;51.344;12.362;2022-10-15T12:39:22;1.17;;;0.60;;
71896;SDS011;59767;51.344;12.362;2022-10-15T12:43:10;2.40;;;0.80;;
71896;SDS011;59767;51.344;12.362;2022-10-15T12:46:19;0.57;;;0.50;;
71896;SDS011;59767;51.344;12.362;2022-10-15T12:59:30;1.70;;;0.80;;
71896;SDS011;59767;51.344;12.362;2022-10-15T13:03:09;1.98;;;0.80;;
71896;SDS011;59767;51.344;12.362;2022-10-15T13:06:32;2.28;;;0.80;;
71896;SDS011;59767;51.344;12.362;2022-10-15T13:09:38;0.98;;;0.70;;
71896;SDS011;59767;51.344;12.362;2022-10-15T13:12:47;2.38;;;0.60;;
71896;SDS011;59767;51.344;12.362;2022-10-15T13:15:56;3.55;;;0.70;;
71896;SDS011;59767;51.344;12.362;2022-10-15T13:19:03;1.52;;;0.80;;
71896;SDS011;59767;51.344;12.362;2022-10-15T13:22:19;1.20;;;0.60;;
71896;SDS011;59767;51.344;12.362;2022-10-15T13:25:28;2.38;;;0.80;;
71896;SDS011;59767;51.344;12.362;2022-10-15T13:28:32;3.67;;;0.90;;
71896;SDS011;59767;51.344;12.362;2022-10-15T13:31:42;1.45;;;0.77;;
71896;SDS011;59767;51.344;12.362;2022-10-15T13:34:47;4.40;;;0.77;;
71896;SDS011;59767;51.344;12.362;2022-10-15T13:37:52;5.03;;;1.10;;
71896;SDS011;59767;51.344;12.362;2022-10-15T13:40:56;1.65;;;1.05;;
71896;SDS011;59767;51.344;12.362;2022-10-15T13:44:00;2.63;;;1.10;;
71896;SDS011;59767;51.344;12.362;2022-10-15T13:47:18;3.72;;;1.05;;
71896;SDS011;59767;51.344;12.362;2022-10-15T13:50:28;2.53;;;0.90;;
71896;SDS011;59767;51.344;12.362;2022-10-15T13:53:34;1.58;;;0.73;;
71896;SDS011;59767;51.344;12.362;2022-10-15T13:56:45;1.20;;;0.80;;
71896;SDS011;59767;51.344;12.362;2022-10-15T13:59:55;2.25;;;0.70;;
71896;SDS011;59767;51.344;12.362;2022-10-15T14:06:16;2.72;;;0.65;;
71896;SDS011;59767;51.344;12.362;2022-10-15T14:09:24;1.15;;;0.80;;
71896;SDS011;59767;51.344;12.362;2022-10-15T14:12:33;2.88;;;0.82;;
71896;SDS011;59767;51.344;12.362;2022-10-15T14:15:45;1.30;;;0.68;;
71896;SDS011;59767;51.344;12.362;2022-10-15T14:18:54;2.38;;;0.73;;
71896;SDS011;59767;51.344;12.362;2022-10-15T14:22:15;1.60;;;0.77;;
71896;SDS011;59767;51.344;12.362;2022-10-15T14:25:22;4.15;;;0.90;;
71896;SDS011;59767;51.344;12.362;2022-10-15T14:28:30;1.42;;;0.70;;
71896;SDS011;59767;51.344;12.362;2022-10-15T14:31:37;2.50;;;1.30;;
71896;SDS011;59767;51.344;12.362;2022-10-15T14:34:42;1.80;;;0.80;;
71896;SDS011;59767;51.344;12.362;2022-10-15T14:37:46;3.35;;;1.20;;
71896;SDS011;59767;51.344;12.362;2022-10-15T14:40:57;2.20;;;0.80;;
71896;SDS011;59767;51.344;12.362;2022-10-15T14:47:16;1.52;;;0.90;;
71896;SDS011;59767;51.344;12.362;2022-10-15T14:50:25;3.90;;;1.20;;
71896;SDS011;59767;51.344;12.362;2022-10-15T14:53:34;3.97;;;0.98;;
71896;SDS011;59767;51.344;12.362;2022-10-15T14:56:40;3.47;;;1.30;;
71896;SDS011;59767;51.344;12.362;2022-10-15T14:59:45;3.20;;;1.30;;
71896;SDS011;59767;51.344;12.362;2022-10-15T15:02:49;2.35;;;1.35;;
71896;SDS011;59767;51.344;12.362;2022-10-15T15:05:54;3.38;;;1.27;;
71896;SDS011;59767;51.344;12.362;2022-10-15T15:08:59;2.30;;;1.30;;
71896;SDS011;59767;51.344;12.362;2022-10-15T15:12:03;2.47;;;1.27;;
71896;SDS011;59767;51.344;12.362;2022-10-15T15:15:11;4.78;;;1.40;;
71896;SDS011;59767;51.344;12.362;2022-10-15T15:18:17;8.50;;;1.60;;
71896;SDS011;59767;51.344;12.362;2022-10-15T15:21:21;4.13;;;1.25;;
71896;SDS011;59767;51.344;12.362;2022-10-15T15:24:26;3.63;;;1.48;;
71896;SDS011;59767;51.344;12.362;2022-10-15T15:27:30;2.80;;;1.27;;
71896;SDS011;59767;51.344;12.362;2022-10-15T15:30:42;5.55;;;1.50;;
71896;SDS011;59767;51.344;12.362;2022-10-15T15:33:47;4.25;;;1.20;;
71896;SDS011;59767;51.344;12.362;2022-10-15T15:36:51;5.10;;;1.65;;
71896;SDS011;59767;51.344;12.362;2022-10-15T15:39:55;4.15;;;1.45;;
71896;SDS011;59767;51.344;12.362;2022-10-15T15:42:58;4.25;;;1.70;;
71896;SDS011;59767;51.344;12.362;2022-10-15T15:46:02;3.30;;;1.40;;
71896;SDS011;59767;51.344;12.362;2022-10-15T15:49:06;4.20;;;1.30;;
71896;SDS011;59767;51.344;12.362;2022-10-15T15:52:11;6.13;;;1.67;;
71896;SDS011;59767;51.344;12.362;2022-10-15T15:55:16;3.83;;;1.60;;
71896;SDS011;59767;51.344;12.362;2022-10-15T15:58:20;6.82;;;1.63;;
71896;SDS011;59767;51.344;12.362;2022-10-15T16:01:24;4.28;;;1.52;;
71896;SDS011;59767;51.344;12.362;2022-10-15T16:04:28;3.85;;;1.40;;
71896;SDS011;59767;51.344;12.362;2022-10-15T16:07:32;4.43;;;1.50;;
71896;SDS011;59767;51.344;12.362;2022-10-15T16:10:38;4.07;;;1.17;;
71896;SDS011;59767;51.344;12.362;2022-10-15T16:13:42;4.88;;;1.42;;
71896;SDS011;59767;51.344;12.362;2022-10-15T16:16:46;2.25;;;1.17;;
71896;SDS011;59767;51.344;12.362;2022-10-15T16:19:50;3.10;;;1.30;;
71896;SDS011;59767;51.344;12.362;2022-10-15T16:22:54;5.43;;;1.30;;
71896;SDS011;59767;51.344;12.362;2022-10-15T16:25:57;3.30;;;1.42;;
71896;SDS011;59767;51.344;12.362;2022-10-15T16:29:01;3.25;;;1.27;;
71896;SDS011;59767;51.344;12.362;2022-10-15T16:32:06;4.90;;;1.83;;
71896;SDS011;59767;51.344;12.362;2022-10-15T16:35:11;5.28;;;2.00;;
71896;SDS011;59767;51.344;12.362;2022-10-15T16:38:15;8.15;;;2.30;;
71896;SDS011;59767;51.344;12.362;2022-10-15T16:41:20;6.45;;;1.67;;
71896;SDS011;59767;51.344;12.362;2022-10-15T16:44:24;3.85;;;1.60;;
71896;SDS011;59767;51.344;12.362;2022-10-15T16:47:28;7.55;;;1.40;;
71896;SDS011;59767;51.344;12.362;2022-10-15T16:50:33;6.50;;;1.30;;
71896;SDS011;59767;51.344;12.362;2022-10-15T16:53:37;4.80;;;1.40;;
71896;SDS011;59767;51.344;12.362;2022-10-15T16:56:42;4.60;;;1.40;;
71896;SDS011;59767;51.344;12.362;2022-10-15T16:59:50;7.00;;;1.40;;
71896;SDS011;59767;51.344;12.362;2022-10-15T17:02:54;2.17;;;1.20;;
71896;SDS011;59767;51.344;12.362;2022-10-15T17:06:00;5.47;;;1.42;;
71896;SDS011;59767;51.344;12.362;2022-10-15T17:09:05;2.00;;;1.00;;
71896;SDS011;59767;51.344;12.362;2022-10-15T17:12:10;7.70;;;1.33;;
71896;SDS011;59767;51.344;12.362;2022-10-15T17:15:13;2.33;;;1.10;;
71896;SDS011;59767;51.344;12.362;2022-10-15T17:18:17;1.98;;;1.27;;
71896;SDS011;59767;51.344;12.362;2022-10-15T17:21:22;2.63;;;1.40;;
71896;SDS011;59767;51.344;12.362;2022-10-15T17:24:28;3.10;;;1.20;;
71896;SDS011;59767;51.344;12.362;2022-10-15T17:27:33;2.65;;;1.00;;
71896;SDS011;59767;51.344;12.362;2022-10-15T17:30:38;1.67;;;0.80;;
71896;SDS011;59767;51.344;12.362;2022-10-15T17:33:42;3.58;;;1.10;;
71896;SDS011;59767;51.344;12.362;2022-10-15T17:36:48;2.33;;;1.20;;
71896;SDS011;59767;51.344;12.362;2022-10-15T17:39:52;4.95;;;1.38;;
71896;SDS011;59767;51.344;12.362;2022-10-15T17:42:56;3.38;;;1.67;;
71896;SDS011;59767;51.344;12.362;2022-10-15T17:46:01;2.50;;;1.05;;
71896;SDS011;59767;51.344;12.362;2022-10-15T17:49:10;5.90;;;1.38;;
71896;SDS011;59767;51.344;12.362;2022-10-15T17:52:14;4.78;;;1.30;;
71896;SDS011;59767;51.344;12.362;2022-10-15T17:55:18;4.07;;;1.60;;
71896;SDS011;59767;51.344;12.362;2022-10-15T17:58:22;6.28;;;1.55;;
71896;SDS011;59767;51.344;12.362;2022-10-15T18:01:31;7.28;;;1.30;;
71896;SDS011;59767;51.344;12.362;2022-10-15T18:05:00;3.85;;;1.27;;
71896;SDS011;59767;51.344;12.362;2022-10-15T18:08:05;4.50;;;1.40;;
71896;SDS011;59767;51.344;12.362;2022-10-15T18:11:11;5.97;;;1.40;;
71896;SDS011;59767;51.344;12.362;2022-10-15T18:14:17;3.35;;;1.30;;
71896;SDS011;59767;51.344;12.362;2022-10-15T18:17:21;6.97;;;1.90;;
71896;SDS011;59767;51.344;12.362;2022-10-15T18:20:25;4.38;;;1.30;;
71896;SDS011;59767;51.344;12.362;2022-10-15T18:23:30;4.10;;;1.63;;
71896;SDS011;59767;51.344;12.362;2022-10-15T18:26:40;4.32;;;1.67;;
71896;SDS011;59767;51.344;12.362;2022-10-15T18:29:44;3.35;;;1.55;;
71896;SDS011;59767;51.344;12.362;2022-10-15T18:32:48;6.55;;;2.15;;
71896;SDS011;59767;51.344;12.362;2022-10-15T18:36:03;4.05;;;1.58;;
71896;SDS011;59767;51.344;12.362;2022-10-15T18:39:09;4.85;;;1.50;;
71896;SDS011;59767;51.344;12.362;2022-10-15T18:42:13;3.75;;;1.67;;
71896;SDS011;59767;51.344;12.362;2022-10-15T18:45:17;3.35;;;1.45;;
71896;SDS011;59767;51.344;12.362;2022-10-15T18:48:21;3.65;;;1.52;;
71896;SDS011;59767;51.344;12.362;2022-10-15T18:51:26;3.08;;;1.67;;
71896;SDS011;59767;51.344;12.362;2022-10-15T18:54:30;7.38;;;1.80;;
71896;SDS011;59767;51.344;12.362;2022-10-15T18:57:39;6.18;;;1.90;;
71896;SDS011;59767;51.344;12.362;2022-10-15T19:00:43;6.72;;;2.03;;
71896;SDS011;59767;51.344;12.362;2022-10-15T19:03:47;5.97;;;1.80;;
71896;SDS011;59767;51.344;12.362;2022-10-15T19:06:55;5.53;;;2.00;;
71896;SDS011;59767;51.344;12.362;2022-10-15T19:10:05;5.93;;;1.90;;
71896;SDS011;59767;51.344;12.362;2022-10-15T19:13:09;5.68;;;1.70;;
71896;SDS011;59767;51.344;12.362;2022-10-15T19:16:12;6.97;;;2.00;;
71896;SDS011;59767;51.344;12.362;2022-10-15T19:19:18;7.63;;;1.67;;
71896;SDS011;59767;51.344;12.362;2022-10-15T19:22:23;6.40;;;1.83;;
71896;SDS011;59767;51.344;12.362;2022-10-15T19:25:28;5.50;;;1.77;;
71896;SDS011;59767;51.344;12.362;2022-10-15T19:28:32;3.25;;;1.55;;
71896;SDS011;59767;51.344;12.362;2022-10-15T19:31:37;6.15;;;1.90;;
71896;SDS011;59767;51.344;12.362;2022-10-15T19:34:44;6.95;;;1.90;;
71896;SDS011;59767;51.344;12.362;2022-10-15T19:37:48;6.32;;;1.88;;
71896;SDS011;59767;51.344;12.362;2022-10-15T19:40:52;3.80;;;1.88;;
71896;SDS011;59767;51.344;12.362;2022-10-15T19:43:57;3.90;;;1.50;;
71896;SDS011;59767;51.344;12.362;2022-10-15T19:47:00;7.13;;;1.90;;
71896;SDS011;59767;51.344;12.362;2022-10-15T19:50:04;4.35;;;1.58;;
71896;SDS011;59767;51.344;12.362;2022-10-15T19:53:10;5.30;;;1.55;;
71896;SDS011;59767;51.344;12.362;2022-10-15T19:56:15;3.95;;;1.65;;
71896;SDS011;59767;51.344;12.362;2022-10-15T19:59:19;3.60;;;1.50;;
71896;SDS011;59767;51.344;12.362;2022-10-15T20:02:23;4.47;;;1.70;;